Terminal Aerodrome Forecast
Issued by NWS

Current Version | Previous Version | Text Only | Print | Product List | Glossary On
Versions: 1 2 3 4 5 6 7 8 9 10 11 12 13 14 15 16 17 18 19 20 21 22 23 24 25 26 27 28 29 30 31 32 33 34 35
000
FTUS45 KGJT 261605 AAB
TAFCNY
TAF AMD
KCNY 261605Z 2616/2712 VRB03KT 5SM BR OVC035
      TEMPO 2616/2617 VRB03KT 2SM -SN BR OVC014
     FM261800 34007KT P6SM VCSH BKN050
     FM270200 34005KT P6SM SCT050 BKN080
     FM270600 34004KT P6SM BKN080=

USA.gov is the U.S. government's official web portal to all federal, state and local government web resources and services.